Aviation Digital Data Service (ADDS)

Output produced by METARs form (1209 UTC 22 September 2014)
found at http://www.aviationweather.gov/adds/metars/
 
KSPI 221120Z 2212/2312 VRB03KT P6SM SKC